sensor_id;sensor_type;location;lat;lon;timestamp;P1;durP1;ratioP1;P2;durP2;ratioP2
3197;SDS011;1611;49.394;11.136;2023-05-10T00:00:57;4.10;;;3.80;;
3197;SDS011;1611;49.394;11.136;2023-05-10T00:03:24;9.17;;;4.73;;
3197;SDS011;1611;49.394;11.136;2023-05-10T00:05:51;7.60;;;5.00;;
3197;SDS011;1611;49.394;11.136;2023-05-10T00:08:17;5.67;;;5.27;;
3197;SDS011;1611;49.394;11.136;2023-05-10T00:10:44;5.23;;;4.73;;
3197;SDS011;1611;49.394;11.136;2023-05-10T00:13:13;6.73;;;6.13;;
3197;SDS011;1611;49.394;11.136;2023-05-10T00:15:39;5.23;;;4.83;;
3197;SDS011;1611;49.394;11.136;2023-05-10T00:18:06;9.70;;;6.07;;
3197;SDS011;1611;49.394;11.136;2023-05-10T00:20:33;8.83;;;5.83;;
3197;SDS011;1611;49.394;11.136;2023-05-10T00:23:00;7.40;;;6.20;;
3197;SDS011;1611;49.394;11.136;2023-05-10T00:25:26;7.23;;;6.17;;
3197;SDS011;1611;49.394;11.136;2023-05-10T00:27:53;7.63;;;6.90;;
3197;SDS011;1611;49.394;11.136;2023-05-10T00:30:23;7.60;;;6.80;;
3197;SDS011;1611;49.394;11.136;2023-05-10T00:32:50;9.70;;;7.70;;
3197;SDS011;1611;49.394;11.136;2023-05-10T00:35:17;14.20;;;7.87;;
3197;SDS011;1611;49.394;11.136;2023-05-10T00:37:44;11.07;;;7.17;;
3197;SDS011;1611;49.394;11.136;2023-05-10T00:40:11;7.97;;;7.07;;
3197;SDS011;1611;49.394;11.136;2023-05-10T00:42:38;10.47;;;7.67;;
3197;SDS011;1611;49.394;11.136;2023-05-10T00:45:05;9.17;;;6.93;;
3197;SDS011;1611;49.394;11.136;2023-05-10T00:47:34;8.77;;;7.83;;
3197;SDS011;1611;49.394;11.136;2023-05-10T00:50:01;6.93;;;6.33;;
3197;SDS011;1611;49.394;11.136;2023-05-10T00:52:28;9.47;;;7.17;;
3197;SDS011;1611;49.394;11.136;2023-05-10T00:54:55;8.80;;;7.50;;
3197;SDS011;1611;49.394;11.136;2023-05-10T00:57:22;8.47;;;6.97;;
3197;SDS011;1611;49.394;11.136;2023-05-10T00:59:49;13.70;;;8.10;;
3197;SDS011;1611;49.394;11.136;2023-05-10T01:02:16;8.73;;;7.80;;
3197;SDS011;1611;49.394;11.136;2023-05-10T01:04:45;8.37;;;7.47;;
3197;SDS011;1611;49.394;11.136;2023-05-10T01:07:12;17.63;;;8.87;;
3197;SDS011;1611;49.394;11.136;2023-05-10T01:09:39;10.60;;;8.77;;
3197;SDS011;1611;49.394;11.136;2023-05-10T01:12:06;9.60;;;8.13;;
3197;SDS011;1611;49.394;11.136;2023-05-10T01:14:33;12.97;;;8.07;;
3197;SDS011;1611;49.394;11.136;2023-05-10T01:17:02;12.20;;;8.40;;
3197;SDS011;1611;49.394;11.136;2023-05-10T01:19:29;14.57;;;9.10;;
3197;SDS011;1611;49.394;11.136;2023-05-10T01:22:02;10.37;;;8.97;;
3197;SDS011;1611;49.394;11.136;2023-05-10T01:27:41;13.80;;;8.83;;
3197;SDS011;1611;49.394;11.136;2023-05-10T01:30:32;8.93;;;8.00;;
3197;SDS011;1611;49.394;11.136;2023-05-10T01:33:12;9.93;;;8.80;;
3197;SDS011;1611;49.394;11.136;2023-05-10T01:35:47;11.00;;;9.90;;
3197;SDS011;1611;49.394;11.136;2023-05-10T01:38:22;10.13;;;8.90;;
3197;SDS011;1611;49.394;11.136;2023-05-10T01:41:01;10.43;;;7.57;;
3197;SDS011;1611;49.394;11.136;2023-05-10T01:43:37;10.00;;;8.80;;
3197;SDS011;1611;49.394;11.136;2023-05-10T01:46:10;11.17;;;8.63;;
3197;SDS011;1611;49.394;11.136;2023-05-10T01:48:47;11.10;;;9.10;;
3197;SDS011;1611;49.394;11.136;2023-05-10T01:51:19;10.63;;;8.70;;
3197;SDS011;1611;49.394;11.136;2023-05-10T01:53:50;15.63;;;8.80;;
3197;SDS011;1611;49.394;11.136;2023-05-10T01:56:20;13.17;;;9.23;;
3197;SDS011;1611;49.394;11.136;2023-05-10T01:58:51;10.93;;;9.40;;
3197;SDS011;1611;49.394;11.136;2023-05-10T02:01:20;13.10;;;11.03;;
3197;SDS011;1611;49.394;11.136;2023-05-10T02:03:49;14.20;;;10.27;;
3197;SDS011;1611;49.394;11.136;2023-05-10T02:06:17;15.40;;;11.03;;
3197;SDS011;1611;49.394;11.136;2023-05-10T02:08:46;12.63;;;9.20;;
3197;SDS011;1611;49.394;11.136;2023-05-10T02:11:15;13.13;;;10.03;;
3197;SDS011;1611;49.394;11.136;2023-05-10T02:13:46;12.97;;;10.10;;
3197;SDS011;1611;49.394;11.136;2023-05-10T02:16:15;11.77;;;9.97;;
3197;SDS011;1611;49.394;11.136;2023-05-10T02:18:43;11.63;;;10.43;;
3197;SDS011;1611;49.394;11.136;2023-05-10T02:21:12;11.43;;;10.23;;
3197;SDS011;1611;49.394;11.136;2023-05-10T02:23:41;12.80;;;10.07;;
3197;SDS011;1611;49.394;11.136;2023-05-10T02:26:09;13.13;;;10.80;;
3197;SDS011;1611;49.394;11.136;2023-05-10T02:28:38;18.20;;;11.30;;
3197;SDS011;1611;49.394;11.136;2023-05-10T02:31:06;12.33;;;11.10;;
3197;SDS011;1611;49.394;11.136;2023-05-10T02:33:35;12.17;;;10.30;;
3197;SDS011;1611;49.394;11.136;2023-05-10T02:36:04;11.83;;;9.80;;
3197;SDS011;1611;49.394;11.136;2023-05-10T02:38:34;11.80;;;10.60;;
3197;SDS011;1611;49.394;11.136;2023-05-10T02:41:02;12.47;;;10.40;;
3197;SDS011;1611;49.394;11.136;2023-05-10T02:43:33;13.27;;;11.87;;
3197;SDS011;1611;49.394;11.136;2023-05-10T02:46:01;14.40;;;10.97;;
3197;SDS011;1611;49.394;11.136;2023-05-10T02:48:28;16.83;;;11.43;;
3197;SDS011;1611;49.394;11.136;2023-05-10T02:50:56;13.60;;;11.60;;
3197;SDS011;1611;49.394;11.136;2023-05-10T02:53:31;19.20;;;12.27;;
3197;SDS011;1611;49.394;11.136;2023-05-10T02:56:01;14.83;;;11.40;;
3197;SDS011;1611;49.394;11.136;2023-05-10T02:58:32;11.10;;;10.07;;
3197;SDS011;1611;49.394;11.136;2023-05-10T03:00:59;12.50;;;11.20;;
3197;SDS011;1611;49.394;11.136;2023-05-10T03:03:26;17.93;;;13.13;;
3197;SDS011;1611;49.394;11.136;2023-05-10T03:05:52;15.13;;;11.90;;
3197;SDS011;1611;49.394;11.136;2023-05-10T03:08:20;13.80;;;11.00;;
3197;SDS011;1611;49.394;11.136;2023-05-10T03:10:50;21.97;;;13.53;;
3197;SDS011;1611;49.394;11.136;2023-05-10T03:13:28;12.27;;;11.07;;
3197;SDS011;1611;49.394;11.136;2023-05-10T03:16:04;12.40;;;10.87;;
3197;SDS011;1611;49.394;11.136;2023-05-10T03:18:36;10.17;;;9.17;;
3197;SDS011;1611;49.394;11.136;2023-05-10T03:21:08;16.53;;;11.70;;
3197;SDS011;1611;49.394;11.136;2023-05-10T03:23:40;12.30;;;10.87;;
3197;SDS011;1611;49.394;11.136;2023-05-10T03:26:09;8.93;;;8.03;;
3197;SDS011;1611;49.394;11.136;2023-05-10T03:28:44;11.57;;;9.10;;
3197;SDS011;1611;49.394;11.136;2023-05-10T03:31:13;17.40;;;9.63;;
3197;SDS011;1611;49.394;11.136;2023-05-10T03:33:45;4.23;;;3.93;;
3197;SDS011;1611;49.394;11.136;2023-05-10T03:36:13;4.17;;;3.87;;
3197;SDS011;1611;49.394;11.136;2023-05-10T03:38:40;4.23;;;3.53;;
3197;SDS011;1611;49.394;11.136;2023-05-10T03:41:06;3.80;;;3.60;;
3197;SDS011;1611;49.394;11.136;2023-05-10T03:43:33;3.80;;;3.03;;
3197;SDS011;1611;49.394;11.136;2023-05-10T03:46:02;3.37;;;3.13;;
3197;SDS011;1611;49.394;11.136;2023-05-10T03:48:29;3.13;;;3.03;;
3197;SDS011;1611;49.394;11.136;2023-05-10T03:50:56;2.73;;;2.53;;
3197;SDS011;1611;49.394;11.136;2023-05-10T03:53:23;2.43;;;2.33;;
3197;SDS011;1611;49.394;11.136;2023-05-10T03:55:50;2.60;;;2.50;;
3197;SDS011;1611;49.394;11.136;2023-05-10T03:58:16;2.07;;;1.97;;
3197;SDS011;1611;49.394;11.136;2023-05-10T04:00:43;1.93;;;1.73;;
3197;SDS011;1611;49.394;11.136;2023-05-10T04:03:11;2.60;;;1.80;;
3197;SDS011;1611;49.394;11.136;2023-05-10T04:05:39;2.23;;;1.73;;
3197;SDS011;1611;49.394;11.136;2023-05-10T04:08:05;6.80;;;2.60;;
3197;SDS011;1611;49.394;11.136;2023-05-10T04:10:32;2.33;;;2.10;;
3197;SDS011;1611;49.394;11.136;2023-05-10T04:12:59;5.17;;;2.00;;
3197;SDS011;1611;49.394;11.136;2023-05-10T04:15:26;1.73;;;1.60;;
3197;SDS011;1611;49.394;11.136;2023-05-10T04:17:53;1.87;;;1.67;;
3197;SDS011;1611;49.394;11.136;2023-05-10T04:20:21;3.40;;;1.73;;
3197;SDS011;1611;49.394;11.136;2023-05-10T04:22:47;1.87;;;1.73;;
3197;SDS011;1611;49.394;11.136;2023-05-10T04:25:14;1.80;;;1.70;;
3197;SDS011;1611;49.394;11.136;2023-05-10T04:27:42;1.80;;;1.70;;
3197;SDS011;1611;49.394;11.136;2023-05-10T04:30:09;1.73;;;1.40;;
3197;SDS011;1611;49.394;11.136;2023-05-10T04:32:36;3.17;;;1.73;;
3197;SDS011;1611;49.394;11.136;2023-05-10T04:35:03;2.33;;;1.20;;
3197;SDS011;1611;49.394;11.136;2023-05-10T04:37:31;1.60;;;1.50;;
3197;SDS011;1611;49.394;11.136;2023-05-10T04:39:58;7.40;;;1.77;;
3197;SDS011;1611;49.394;11.136;2023-05-10T04:42:25;1.10;;;1.10;;
3197;SDS011;1611;49.394;11.136;2023-05-10T04:44:52;1.23;;;1.10;;
3197;SDS011;1611;49.394;11.136;2023-05-10T04:47:19;1.57;;;1.47;;
3197;SDS011;1611;49.394;11.136;2023-05-10T04:49:46;2.43;;;1.77;;
3197;SDS011;1611;49.394;11.136;2023-05-10T04:52:12;1.63;;;1.40;;
3197;SDS011;1611;49.394;11.136;2023-05-10T04:54:41;1.60;;;1.00;;
3197;SDS011;1611;49.394;11.136;2023-05-10T04:57:08;2.83;;;1.50;;
3197;SDS011;1611;49.394;11.136;2023-05-10T04:59:35;1.17;;;1.17;;
3197;SDS011;1611;49.394;11.136;2023-05-10T05:02:02;2.10;;;1.30;;
3197;SDS011;1611;49.394;11.136;2023-05-10T05:04:29;5.07;;;1.27;;
3197;SDS011;1611;49.394;11.136;2023-05-10T05:06:56;4.10;;;1.70;;
3197;SDS011;1611;49.394;11.136;2023-05-10T05:09:23;1.00;;;1.00;;
3197;SDS011;1611;49.394;11.136;2023-05-10T05:11:51;2.70;;;1.53;;
3197;SDS011;1611;49.394;11.136;2023-05-10T05:14:18;1.20;;;1.20;;
3197;SDS011;1611;49.394;11.136;2023-05-10T05:16:45;1.60;;;1.50;;
3197;SDS011;1611;49.394;11.136;2023-05-10T05:19:12;1.20;;;1.20;;
3197;SDS011;1611;49.394;11.136;2023-05-10T05:21:39;3.60;;;1.40;;
3197;SDS011;1611;49.394;11.136;2023-05-10T05:24:06;1.37;;;1.37;;
3197;SDS011;1611;49.394;11.136;2023-05-10T05:26:33;1.40;;;1.30;;
3197;SDS011;1611;49.394;11.136;2023-05-10T05:29:01;4.30;;;1.10;;
3197;SDS011;1611;49.394;11.136;2023-05-10T05:31:28;4.10;;;1.23;;
3197;SDS011;1611;49.394;11.136;2023-05-10T05:33:55;1.00;;;1.00;;
3197;SDS011;1611;49.394;11.136;2023-05-10T05:36:22;2.33;;;1.20;;
3197;SDS011;1611;49.394;11.136;2023-05-10T05:38:49;1.10;;;1.10;;
3197;SDS011;1611;49.394;11.136;2023-05-10T05:41:16;1.23;;;1.13;;
3197;SDS011;1611;49.394;11.136;2023-05-10T05:43:42;1.40;;;1.30;;
3197;SDS011;1611;49.394;11.136;2023-05-10T05:46:10;2.63;;;1.10;;
3197;SDS011;1611;49.394;11.136;2023-05-10T05:48:37;3.33;;;1.40;;
3197;SDS011;1611;49.394;11.136;2023-05-10T05:51:04;7.77;;;1.40;;
3197;SDS011;1611;49.394;11.136;2023-05-10T05:53:31;1.70;;;1.50;;
3197;SDS011;1611;49.394;11.136;2023-05-10T05:55:58;1.20;;;1.20;;
3197;SDS011;1611;49.394;11.136;2023-05-10T05:58:25;1.70;;;1.43;;
3197;SDS011;1611;49.394;11.136;2023-05-10T06:00:52;1.37;;;1.27;;
3197;SDS011;1611;49.394;11.136;2023-05-10T06:03:20;1.47;;;1.20;;
3197;SDS011;1611;49.394;11.136;2023-05-10T06:05:47;2.83;;;1.17;;
3197;SDS011;1611;49.394;11.136;2023-05-10T06:08:13;1.40;;;1.40;;
3197;SDS011;1611;49.394;11.136;2023-05-10T06:10:40;1.50;;;1.40;;
3197;SDS011;1611;49.394;11.136;2023-05-10T06:13:07;1.60;;;1.47;;
3197;SDS011;1611;49.394;11.136;2023-05-10T06:15:34;1.33;;;1.33;;
3197;SDS011;1611;49.394;11.136;2023-05-10T06:18:00;1.80;;;1.57;;
3197;SDS011;1611;49.394;11.136;2023-05-10T06:20:28;10.53;;;1.60;;
3197;SDS011;1611;49.394;11.136;2023-05-10T06:22:56;1.70;;;1.60;;
3197;SDS011;1611;49.394;11.136;2023-05-10T06:25:23;1.40;;;1.40;;
3197;SDS011;1611;49.394;11.136;2023-05-10T06:27:49;1.87;;;1.77;;
3197;SDS011;1611;49.394;11.136;2023-05-10T06:30:20;1.67;;;1.67;;
3197;SDS011;1611;49.394;11.136;2023-05-10T06:32:48;1.67;;;1.67;;
3197;SDS011;1611;49.394;11.136;2023-05-10T06:35:14;4.10;;;1.60;;
3197;SDS011;1611;49.394;11.136;2023-05-10T06:37:43;1.50;;;1.40;;
3197;SDS011;1611;49.394;11.136;2023-05-10T06:40:10;1.50;;;1.40;;
3197;SDS011;1611;49.394;11.136;2023-05-10T06:42:37;3.00;;;1.40;;
3197;SDS011;1611;49.394;11.136;2023-05-10T06:45:04;5.27;;;1.67;;
3197;SDS011;1611;49.394;11.136;2023-05-10T06:47:31;4.13;;;1.80;;
3197;SDS011;1611;49.394;11.136;2023-05-10T06:49:58;2.70;;;1.60;;
3197;SDS011;1611;49.394;11.136;2023-05-10T06:52:25;3.73;;;1.60;;
3197;SDS011;1611;49.394;11.136;2023-05-10T06:54:53;1.77;;;1.77;;
3197;SDS011;1611;49.394;11.136;2023-05-10T06:57:20;1.40;;;1.30;;
3197;SDS011;1611;49.394;11.136;2023-05-10T06:59:46;1.40;;;1.37;;
3197;SDS011;1611;49.394;11.136;2023-05-10T07:02:13;2.87;;;1.80;;
3197;SDS011;1611;49.394;11.136;2023-05-10T07:04:41;1.67;;;1.57;;
3197;SDS011;1611;49.394;11.136;2023-05-10T07:07:08;1.80;;;1.70;;
3197;SDS011;1611;49.394;11.136;2023-05-10T07:09:34;2.70;;;1.33;;
3197;SDS011;1611;49.394;11.136;2023-05-10T07:12:03;1.40;;;1.40;;
3197;SDS011;1611;49.394;11.136;2023-05-10T07:14:30;1.73;;;1.63;;
3197;SDS011;1611;49.394;11.136;2023-05-10T07:16:57;1.33;;;1.33;;
3197;SDS011;1611;49.394;11.136;2023-05-10T07:19:23;1.37;;;1.20;;
3197;SDS011;1611;49.394;11.136;2023-05-10T07:21:50;1.50;;;1.40;;
3197;SDS011;1611;49.394;11.136;2023-05-10T07:24:17;1.50;;;1.40;;
3197;SDS011;1611;49.394;11.136;2023-05-10T07:26:43;2.50;;;1.30;;
3197;SDS011;1611;49.394;11.136;2023-05-10T07:29:12;2.83;;;1.57;;
3197;SDS011;1611;49.394;11.136;2023-05-10T07:31:38;1.30;;;1.30;;
3197;SDS011;1611;49.394;11.136;2023-05-10T07:34:06;9.60;;;1.60;;
3197;SDS011;1611;49.394;11.136;2023-05-10T07:36:33;3.70;;;1.53;;
3197;SDS011;1611;49.394;11.136;2023-05-10T07:39:00;1.77;;;1.50;;
3197;SDS011;1611;49.394;11.136;2023-05-10T07:41:27;1.60;;;1.50;;
3197;SDS011;1611;49.394;11.136;2023-05-10T07:43:53;10.90;;;1.70;;
3197;SDS011;1611;49.394;11.136;2023-05-10T07:46:21;2.70;;;1.70;;
3197;SDS011;1611;49.394;11.136;2023-05-10T07:48:48;4.40;;;1.53;;
3197;SDS011;1611;49.394;11.136;2023-05-10T07:51:15;1.30;;;1.20;;
3197;SDS011;1611;49.394;11.136;2023-05-10T07:53:42;1.47;;;1.27;;
3197;SDS011;1611;49.394;11.136;2023-05-10T07:56:21;1.53;;;1.30;;
3197;SDS011;1611;49.394;11.136;2023-05-10T07:58:51;1.27;;;1.20;;
3197;SDS011;1611;49.394;11.136;2023-05-10T08:01:18;3.00;;;1.80;;
3197;SDS011;1611;49.394;11.136;2023-05-10T08:03:46;3.53;;;2.40;;
3197;SDS011;1611;49.394;11.136;2023-05-10T08:06:13;4.10;;;1.60;;
3197;SDS011;1611;49.394;11.136;2023-05-10T08:08:40;1.80;;;1.70;;
3197;SDS011;1611;49.394;11.136;2023-05-10T08:11:07;4.10;;;1.37;;
3197;SDS011;1611;49.394;11.136;2023-05-10T08:13:34;3.70;;;1.70;;
3197;SDS011;1611;49.394;11.136;2023-05-10T08:16:00;2.60;;;1.60;;
3197;SDS011;1611;49.394;11.136;2023-05-10T08:18:27;3.53;;;1.53;;
3197;SDS011;1611;49.394;11.136;2023-05-10T08:20:55;4.27;;;1.60;;
3197;SDS011;1611;49.394;11.136;2023-05-10T08:23:22;2.33;;;1.70;;
3197;SDS011;1611;49.394;11.136;2023-05-10T08:25:49;2.13;;;1.47;;
3197;SDS011;1611;49.394;11.136;2023-05-10T08:28:15;2.07;;;1.90;;
3197;SDS011;1611;49.394;11.136;2023-05-10T08:30:42;3.70;;;1.87;;
3197;SDS011;1611;49.394;11.136;2023-05-10T08:33:09;3.93;;;1.80;;
3197;SDS011;1611;49.394;11.136;2023-05-10T08:35:36;2.20;;;1.60;;
3197;SDS011;1611;49.394;11.136;2023-05-10T08:38:04;2.60;;;1.53;;
3197;SDS011;1611;49.394;11.136;2023-05-10T08:40:30;1.70;;;1.60;;
3197;SDS011;1611;49.394;11.136;2023-05-10T08:42:58;5.80;;;1.57;;
3197;SDS011;1611;49.394;11.136;2023-05-10T08:45:31;2.90;;;1.40;;
3197;SDS011;1611;49.394;11.136;2023-05-10T08:47:59;4.40;;;1.63;;
3197;SDS011;1611;49.394;11.136;2023-05-10T08:50:28;3.07;;;1.50;;
3197;SDS011;1611;49.394;11.136;2023-05-10T08:52:57;1.60;;;1.50;;
3197;SDS011;1611;49.394;11.136;2023-05-10T08:55:28;1.50;;;1.40;;
3197;SDS011;1611;49.394;11.136;2023-05-10T08:57:55;1.50;;;1.40;;
3197;SDS011;1611;49.394;11.136;2023-05-10T09:00:22;1.50;;;1.40;;
3197;SDS011;1611;49.394;11.136;2023-05-10T09:02:49;2.77;;;1.37;;
3197;SDS011;1611;49.394;11.136;2023-05-10T09:05:16;3.70;;;2.20;;
3197;SDS011;1611;49.394;11.136;2023-05-10T09:07:43;1.97;;;1.80;;
3197;SDS011;1611;49.394;11.136;2023-05-10T09:10:10;1.70;;;1.60;;
3197;SDS011;1611;49.394;11.136;2023-05-10T09:12:39;1.47;;;1.37;;
3197;SDS011;1611;49.394;11.136;2023-05-10T09:15:06;2.60;;;1.33;;
3197;SDS011;1611;49.394;11.136;2023-05-10T09:17:35;8.93;;;2.20;;
3197;SDS011;1611;49.394;11.136;2023-05-10T09:20:03;20.27;;;2.93;;
3197;SDS011;1611;49.394;11.136;2023-05-10T09:22:31;2.43;;;2.00;;
3197;SDS011;1611;49.394;11.136;2023-05-10T09:25:05;6.03;;;3.87;;
3197;SDS011;1611;49.394;11.136;2023-05-10T09:27:32;2.97;;;2.47;;
3197;SDS011;1611;49.394;11.136;2023-05-10T09:30:01;3.60;;;2.33;;
3197;SDS011;1611;49.394;11.136;2023-05-10T09:32:35;2.30;;;2.10;;
3197;SDS011;1611;49.394;11.136;2023-05-10T09:35:06;3.17;;;2.07;;
3197;SDS011;1611;49.394;11.136;2023-05-10T09:37:38;3.47;;;2.57;;
3197;SDS011;1611;49.394;11.136;2023-05-10T09:40:07;3.10;;;2.17;;
3197;SDS011;1611;49.394;11.136;2023-05-10T09:42:37;3.33;;;3.13;;
3197;SDS011;1611;49.394;11.136;2023-05-10T09:45:06;4.70;;;2.90;;
3197;SDS011;1611;49.394;11.136;2023-05-10T09:47:34;2.50;;;2.30;;
3197;SDS011;1611;49.394;11.136;2023-05-10T09:50:02;2.70;;;2.50;;
3197;SDS011;1611;49.394;11.136;2023-05-10T09:52:29;3.17;;;2.90;;
3197;SDS011;1611;49.394;11.136;2023-05-10T09:54:57;4.73;;;2.80;;
3197;SDS011;1611;49.394;11.136;2023-05-10T09:57:24;4.70;;;2.60;;
3197;SDS011;1611;49.394;11.136;2023-05-10T09:59:51;6.37;;;2.50;;
3197;SDS011;1611;49.394;11.136;2023-05-10T10:02:20;2.40;;;2.30;;
3197;SDS011;1611;49.394;11.136;2023-05-10T10:04:53;5.47;;;3.10;;
3197;SDS011;1611;49.394;11.136;2023-05-10T10:07:22;4.30;;;2.97;;
3197;SDS011;1611;49.394;11.136;2023-05-10T10:09:50;3.70;;;3.40;;
3197;SDS011;1611;49.394;11.136;2023-05-10T10:12:17;3.37;;;2.80;;
3197;SDS011;1611;49.394;11.136;2023-05-10T10:14:45;4.67;;;3.40;;
3197;SDS011;1611;49.394;11.136;2023-05-10T10:17:12;2.70;;;2.47;;
3197;SDS011;1611;49.394;11.136;2023-05-10T10:19:41;4.73;;;2.60;;
3197;SDS011;1611;49.394;11.136;2023-05-10T10:22:07;3.53;;;3.00;;
3197;SDS011;1611;49.394;11.136;2023-05-10T10:24:36;5.20;;;2.90;;
3197;SDS011;1611;49.394;11.136;2023-05-10T10:27:07;2.47;;;2.37;;
3197;SDS011;1611;49.394;11.136;2023-05-10T10:29:44;4.43;;;2.60;;
3197;SDS011;1611;49.394;11.136;2023-05-10T10:32:19;2.20;;;2.10;;
3197;SDS011;1611;49.394;11.136;2023-05-10T10:34:52;4.30;;;2.13;;
3197;SDS011;1611;49.394;11.136;2023-05-10T10:37:20;2.30;;;2.10;;
3197;SDS011;1611;49.394;11.136;2023-05-10T10:39:47;2.90;;;2.20;;
3197;SDS011;1611;49.394;11.136;2023-05-10T10:42:14;3.43;;;2.40;;
3197;SDS011;1611;49.394;11.136;2023-05-10T10:45:11;5.63;;;2.37;;
3197;SDS011;1611;49.394;11.136;2023-05-10T10:47:38;4.63;;;2.10;;
3197;SDS011;1611;49.394;11.136;2023-05-10T10:50:06;1.93;;;1.80;;
3197;SDS011;1611;49.394;11.136;2023-05-10T10:52:35;3.30;;;1.90;;
3197;SDS011;1611;49.394;11.136;2023-05-10T10:55:03;3.13;;;1.90;;
3197;SDS011;1611;49.394;11.136;2023-05-10T10:57:35;6.33;;;2.00;;
3197;SDS011;1611;49.394;11.136;2023-05-10T11:00:19;2.17;;;1.90;;
3197;SDS011;1611;49.394;11.136;2023-05-10T11:02:51;6.20;;;1.87;;
3197;SDS011;1611;49.394;11.136;2023-05-10T11:05:33;1.93;;;1.70;;
3197;SDS011;1611;49.394;11.136;2023-05-10T11:08:06;4.80;;;2.60;;
3197;SDS011;1611;49.394;11.136;2023-05-10T11:10:49;4.10;;;1.93;;
3197;SDS011;1611;49.394;11.136;2023-05-10T11:13:28;4.50;;;1.20;;
3197;SDS011;1611;49.394;11.136;2023-05-10T11:15:56;4.30;;;1.40;;
3197;SDS011;1611;49.394;11.136;2023-05-10T11:18:24;4.20;;;1.33;;
3197;SDS011;1611;49.394;11.136;2023-05-10T11:20:55;1.80;;;1.70;;
3197;SDS011;1611;49.394;11.136;2023-05-10T11:23:23;2.13;;;1.50;;
3197;SDS011;1611;49.394;11.136;2023-05-10T11:25:55;1.50;;;1.40;;
3197;SDS011;1611;49.394;11.136;2023-05-10T11:28:22;1.97;;;1.87;;
3197;SDS011;1611;49.394;11.136;2023-05-10T11:30:49;6.93;;;1.60;;
3197;SDS011;1611;49.394;11.136;2023-05-10T11:33:17;4.00;;;1.50;;
3197;SDS011;1611;49.394;11.136;2023-05-10T11:35:44;1.50;;;1.40;;
3197;SDS011;1611;49.394;11.136;2023-05-10T11:38:12;2.53;;;1.47;;
3197;SDS011;1611;49.394;11.136;2023-05-10T11:40:40;1.20;;;1.20;;
3197;SDS011;1611;49.394;11.136;2023-05-10T11:43:08;3.97;;;1.63;;
3197;SDS011;1611;49.394;11.136;2023-05-10T11:45:36;2.10;;;1.83;;
3197;SDS011;1611;49.394;11.136;2023-05-10T11:48:03;3.00;;;1.80;;
3197;SDS011;1611;49.394;11.136;2023-05-10T11:50:30;2.70;;;1.70;;
3197;SDS011;1611;49.394;11.136;2023-05-10T11:52:57;2.20;;;1.60;;
3197;SDS011;1611;49.394;11.136;2023-05-10T11:55:26;2.30;;;2.10;;
3197;SDS011;1611;49.394;11.136;2023-05-10T11:57:55;3.43;;;2.00;;
3197;SDS011;1611;49.394;11.136;2023-05-10T12:00:25;3.00;;;2.60;;
3197;SDS011;1611;49.394;11.136;2023-05-10T12:02:52;3.60;;;1.90;;
3197;SDS011;1611;49.394;11.136;2023-05-10T12:05:19;3.23;;;2.03;;
3197;SDS011;1611;49.394;11.136;2023-05-10T12:07:46;3.30;;;2.03;;
3197;SDS011;1611;49.394;11.136;2023-05-10T12:10:13;2.13;;;2.03;;
3197;SDS011;1611;49.394;11.136;2023-05-10T12:12:43;2.90;;;1.70;;
3197;SDS011;1611;49.394;11.136;2023-05-10T12:15:11;3.47;;;1.70;;
3197;SDS011;1611;49.394;11.136;2023-05-10T12:17:39;1.70;;;1.60;;
3197;SDS011;1611;49.394;11.136;2023-05-10T12:20:15;3.23;;;1.80;;
3197;SDS011;1611;49.394;11.136;2023-05-10T12:22:44;3.43;;;1.73;;
3197;SDS011;1611;49.394;11.136;2023-05-10T12:25:11;2.60;;;1.70;;
3197;SDS011;1611;49.394;11.136;2023-05-10T12:27:38;2.93;;;1.80;;
3197;SDS011;1611;49.394;11.136;2023-05-10T12:30:07;2.80;;;2.07;;
3197;SDS011;1611;49.394;11.136;2023-05-10T12:32:38;1.50;;;1.47;;
3197;SDS011;1611;49.394;11.136;2023-05-10T12:35:06;3.40;;;1.60;;
3197;SDS011;1611;49.394;11.136;2023-05-10T12:37:33;5.80;;;1.57;;
3197;SDS011;1611;49.394;11.136;2023-05-10T12:40:04;2.30;;;1.77;;
3197;SDS011;1611;49.394;11.136;2023-05-10T12:42:33;1.33;;;1.33;;
3197;SDS011;1611;49.394;11.136;2023-05-10T12:45:00;2.47;;;1.10;;
3197;SDS011;1611;49.394;11.136;2023-05-10T12:47:28;1.37;;;1.37;;
3197;SDS011;1611;49.394;11.136;2023-05-10T12:49:55;7.43;;;1.20;;
3197;SDS011;1611;49.394;11.136;2023-05-10T12:52:22;4.00;;;1.47;;
3197;SDS011;1611;49.394;11.136;2023-05-10T12:54:49;2.70;;;1.33;;
3197;SDS011;1611;49.394;11.136;2023-05-10T12:57:16;2.20;;;1.37;;
3197;SDS011;1611;49.394;11.136;2023-05-10T12:59:43;1.27;;;1.17;;
3197;SDS011;1611;49.394;11.136;2023-05-10T13:02:09;1.60;;;1.13;;
3197;SDS011;1611;49.394;11.136;2023-05-10T13:04:37;1.77;;;1.23;;
3197;SDS011;1611;49.394;11.136;2023-05-10T13:07:04;1.47;;;1.37;;
3197;SDS011;1611;49.394;11.136;2023-05-10T13:09:31;1.20;;;1.20;;
3197;SDS011;1611;49.394;11.136;2023-05-10T13:11:58;2.03;;;1.47;;
3197;SDS011;1611;49.394;11.136;2023-05-10T13:14:25;4.50;;;1.17;;
3197;SDS011;1611;49.394;11.136;2023-05-10T13:16:52;1.60;;;1.43;;
3197;SDS011;1611;49.394;11.136;2023-05-10T13:19:19;3.33;;;1.67;;
3197;SDS011;1611;49.394;11.136;2023-05-10T13:21:47;3.73;;;1.73;;
3197;SDS011;1611;49.394;11.136;2023-05-10T13:24:14;1.50;;;1.40;;
3197;SDS011;1611;49.394;11.136;2023-05-10T13:26:42;2.30;;;1.20;;
3197;SDS011;1611;49.394;11.136;2023-05-10T13:29:09;11.23;;;1.60;;
3197;SDS011;1611;49.394;11.136;2023-05-10T13:31:35;2.03;;;1.50;;
3197;SDS011;1611;49.394;11.136;2023-05-10T13:34:03;1.23;;;1.23;;
3197;SDS011;1611;49.394;11.136;2023-05-10T13:36:30;1.57;;;1.47;;
3197;SDS011;1611;49.394;11.136;2023-05-10T13:38:59;1.63;;;1.30;;
3197;SDS011;1611;49.394;11.136;2023-05-10T13:41:27;2.10;;;1.27;;
3197;SDS011;1611;49.394;11.136;2023-05-10T13:43:54;5.70;;;1.30;;
3197;SDS011;1611;49.394;11.136;2023-05-10T13:46:21;2.83;;;1.60;;
3197;SDS011;1611;49.394;11.136;2023-05-10T13:48:48;2.20;;;1.97;;
3197;SDS011;1611;49.394;11.136;2023-05-10T13:51:14;1.63;;;1.53;;
3197;SDS011;1611;49.394;11.136;2023-05-10T13:53:41;1.70;;;1.60;;
3197;SDS011;1611;49.394;11.136;2023-05-10T13:56:09;2.20;;;1.20;;
3197;SDS011;1611;49.394;11.136;2023-05-10T13:58:36;1.47;;;1.37;;
3197;SDS011;1611;49.394;11.136;2023-05-10T14:01:03;2.10;;;1.40;;
3197;SDS011;1611;49.394;11.136;2023-05-10T14:03:30;2.20;;;1.50;;
3197;SDS011;1611;49.394;11.136;2023-05-10T14:05:57;1.37;;;1.27;;
3197;SDS011;1611;49.394;11.136;2023-05-10T14:08:24;1.30;;;1.20;;
3197;SDS011;1611;49.394;11.136;2023-05-10T14:10:52;5.27;;;1.63;;
3197;SDS011;1611;49.394;11.136;2023-05-10T14:13:22;3.43;;;2.53;;
3197;SDS011;1611;49.394;11.136;2023-05-10T14:15:49;2.10;;;1.63;;
3197;SDS011;1611;49.394;11.136;2023-05-10T14:18:16;1.57;;;1.10;;
3197;SDS011;1611;49.394;11.136;2023-05-10T14:20:43;2.30;;;1.60;;
3197;SDS011;1611;49.394;11.136;2023-05-10T14:23:10;1.37;;;1.27;;
3197;SDS011;1611;49.394;11.136;2023-05-10T14:25:37;1.40;;;1.30;;
3197;SDS011;1611;49.394;11.136;2023-05-10T14:28:06;2.07;;;1.60;;
3197;SDS011;1611;49.394;11.136;2023-05-10T14:30:34;2.40;;;1.70;;
3197;SDS011;1611;49.394;11.136;2023-05-10T14:33:01;1.57;;;1.47;;
3197;SDS011;1611;49.394;11.136;2023-05-10T14:35:28;9.50;;;1.60;;
3197;SDS011;1611;49.394;11.136;2023-05-10T14:37:56;1.30;;;1.20;;
3197;SDS011;1611;49.394;11.136;2023-05-10T14:40:23;1.73;;;1.40;;
3197;SDS011;1611;49.394;11.136;2023-05-10T14:42:50;4.10;;;1.70;;
3197;SDS011;1611;49.394;11.136;2023-05-10T14:45:17;1.53;;;1.40;;
3197;SDS011;1611;49.394;11.136;2023-05-10T14:47:46;1.30;;;1.30;;
3197;SDS011;1611;49.394;11.136;2023-05-10T14:50:12;2.57;;;1.40;;
3197;SDS011;1611;49.394;11.136;2023-05-10T14:52:39;2.80;;;1.43;;
3197;SDS011;1611;49.394;11.136;2023-05-10T14:55:06;2.30;;;1.40;;
3197;SDS011;1611;49.394;11.136;2023-05-10T14:57:34;1.20;;;1.20;;
3197;SDS011;1611;49.394;11.136;2023-05-10T15:00:01;3.83;;;1.50;;
3197;SDS011;1611;49.394;11.136;2023-05-10T15:02:28;2.13;;;1.53;;
3197;SDS011;1611;49.394;11.136;2023-05-10T15:04:56;1.90;;;1.80;;
3197;SDS011;1611;49.394;11.136;2023-05-10T15:07:23;2.20;;;1.10;;